Terminal Aerodrome Forecast
Issued by NWS

Home | Current Version | Previous Version | Text Only | Print | Product List | Glossary On
Versions: 1 2 3 4 5 6 7 8 9 10 11 12 13 14 15 16 17 18 19 20
000
FTUS41 KBGM 261300 AAA
TAFELM
TAF AMD
KELM 261359Z 2614/2712 06005KT P6SM BKN025 OVC035
     FM261600 04005KT 1SM -SN OVC015
     FM270100 33009KT 3SM -SHSN OVC022
     FM270600 33005KT 5SM -SHSN OVC035=

USA.gov is the U.S. government's official web portal to all federal, state and local government web resources and services.